sensor_id;sensor_type;location;lat;lon;timestamp;temperature;humidity
24152;DHT22;12311;50.866;4.332;2023-08-21T00:00:45;21.40;99.90
24152;DHT22;12311;50.866;4.332;2023-08-21T00:03:11;21.50;99.90
24152;DHT22;12311;50.866;4.332;2023-08-21T00:05:36;21.50;99.90
24152;DHT22;12311;50.866;4.332;2023-08-21T00:08:02;21.60;99.90
24152;DHT22;12311;50.866;4.332;2023-08-21T00:10:29;21.50;99.90
24152;DHT22;12311;50.866;4.332;2023-08-21T00:12:55;21.50;99.90
24152;DHT22;12311;50.866;4.332;2023-08-21T00:15:21;21.40;99.90
24152;DHT22;12311;50.866;4.332;2023-08-21T00:17:47;21.40;99.90
24152;DHT22;12311;50.866;4.332;2023-08-21T00:20:12;21.40;99.90
24152;DHT22;12311;50.866;4.332;2023-08-21T00:22:38;21.40;99.90
24152;DHT22;12311;50.866;4.332;2023-08-21T00:25:04;21.30;99.90
24152;DHT22;12311;50.866;4.332;2023-08-21T00:27:29;21.40;99.90
24152;DHT22;12311;50.866;4.332;2023-08-21T00:29:55;21.40;99.90
24152;DHT22;12311;50.866;4.332;2023-08-21T00:32:21;21.50;99.90
24152;DHT22;12311;50.866;4.332;2023-08-21T00:34:46;21.50;99.90
24152;DHT22;12311;50.866;4.332;2023-08-21T00:37:12;21.50;99.90
24152;DHT22;12311;50.866;4.332;2023-08-21T00:39:38;21.50;99.90
24152;DHT22;12311;50.866;4.332;2023-08-21T00:42:03;21.40;99.90
24152;DHT22;12311;50.866;4.332;2023-08-21T00:44:29;21.20;99.90
24152;DHT22;12311;50.866;4.332;2023-08-21T00:46:55;21.10;99.90
24152;DHT22;12311;50.866;4.332;2023-08-21T00:49:20;21.00;99.90
24152;DHT22;12311;50.866;4.332;2023-08-21T00:51:48;21.00;99.90
24152;DHT22;12311;50.866;4.332;2023-08-21T00:54:14;21.10;99.90
24152;DHT22;12311;50.866;4.332;2023-08-21T00:56:40;21.10;99.90
24152;DHT22;12311;50.866;4.332;2023-08-21T00:59:05;21.20;99.90
24152;DHT22;12311;50.866;4.332;2023-08-21T01:01:32;21.00;99.90
24152;DHT22;12311;50.866;4.332;2023-08-21T01:03:59;20.90;99.90
24152;DHT22;12311;50.866;4.332;2023-08-21T01:06:24;20.80;99.90
24152;DHT22;12311;50.866;4.332;2023-08-21T01:08:57;20.80;99.90
24152;DHT22;12311;50.866;4.332;2023-08-21T01:11:49;20.80;99.90
24152;DHT22;12311;50.866;4.332;2023-08-21T01:16:43;20.80;99.90
24152;DHT22;12311;50.866;4.332;2023-08-21T01:19:24;20.70;99.90
24152;DHT22;12311;50.866;4.332;2023-08-21T01:21:51;20.60;99.90
24152;DHT22;12311;50.866;4.332;2023-08-21T01:24:20;20.70;99.90
24152;DHT22;12311;50.866;4.332;2023-08-21T01:26:45;20.80;99.90
24152;DHT22;12311;50.866;4.332;2023-08-21T01:29:11;20.70;99.90
24152;DHT22;12311;50.866;4.332;2023-08-21T01:31:37;20.60;99.90
24152;DHT22;12311;50.866;4.332;2023-08-21T01:34:06;20.60;99.90
24152;DHT22;12311;50.866;4.332;2023-08-21T01:36:34;20.50;99.90
24152;DHT22;12311;50.866;4.332;2023-08-21T01:39:00;20.60;99.90
24152;DHT22;12311;50.866;4.332;2023-08-21T01:41:26;20.60;99.90
24152;DHT22;12311;50.866;4.332;2023-08-21T01:43:52;20.60;99.90
24152;DHT22;12311;50.866;4.332;2023-08-21T01:46:17;20.50;99.90
24152;DHT22;12311;50.866;4.332;2023-08-21T01:48:43;20.40;99.90
24152;DHT22;12311;50.866;4.332;2023-08-21T01:51:09;20.50;99.90
24152;DHT22;12311;50.866;4.332;2023-08-21T01:53:34;20.50;99.90
24152;DHT22;12311;50.866;4.332;2023-08-21T01:56:00;20.50;99.90
24152;DHT22;12311;50.866;4.332;2023-08-21T01:58:26;20.50;99.90
24152;DHT22;12311;50.866;4.332;2023-08-21T02:00:51;20.60;99.90
24152;DHT22;12311;50.866;4.332;2023-08-21T02:03:17;20.60;99.90
24152;DHT22;12311;50.866;4.332;2023-08-21T02:05:43;20.40;99.90
24152;DHT22;12311;50.866;4.332;2023-08-21T02:08:12;20.30;99.90
24152;DHT22;12311;50.866;4.332;2023-08-21T02:10:50;20.30;99.90
24152;DHT22;12311;50.866;4.332;2023-08-21T02:13:16;20.20;99.90
24152;DHT22;12311;50.866;4.332;2023-08-21T02:15:41;20.10;99.90
24152;DHT22;12311;50.866;4.332;2023-08-21T02:18:07;20.10;99.90
24152;DHT22;12311;50.866;4.332;2023-08-21T02:20:33;20.00;99.90
24152;DHT22;12311;50.866;4.332;2023-08-21T02:22:58;19.90;99.90
24152;DHT22;12311;50.866;4.332;2023-08-21T02:25:24;20.00;99.90
24152;DHT22;12311;50.866;4.332;2023-08-21T02:27:50;20.00;99.90
24152;DHT22;12311;50.866;4.332;2023-08-21T02:30:16;20.10;99.90
24152;DHT22;12311;50.866;4.332;2023-08-21T02:32:42;20.10;99.90
24152;DHT22;12311;50.866;4.332;2023-08-21T02:35:08;20.10;99.90
24152;DHT22;12311;50.866;4.332;2023-08-21T02:37:34;20.20;99.90
24152;DHT22;12311;50.866;4.332;2023-08-21T02:40:05;20.10;99.90
24152;DHT22;12311;50.866;4.332;2023-08-21T02:42:33;20.00;99.90
24152;DHT22;12311;50.866;4.332;2023-08-21T02:44:59;20.00;99.90
24152;DHT22;12311;50.866;4.332;2023-08-21T02:47:24;20.00;99.90
24152;DHT22;12311;50.866;4.332;2023-08-21T02:49:50;20.00;99.90
24152;DHT22;12311;50.866;4.332;2023-08-21T02:52:17;19.90;99.90
24152;DHT22;12311;50.866;4.332;2023-08-21T02:54:43;19.90;99.90
24152;DHT22;12311;50.866;4.332;2023-08-21T02:57:09;19.90;99.90
24152;DHT22;12311;50.866;4.332;2023-08-21T02:59:34;19.80;99.90
24152;DHT22;12311;50.866;4.332;2023-08-21T03:02:00;19.80;99.90
24152;DHT22;12311;50.866;4.332;2023-08-21T03:04:26;19.80;99.90
24152;DHT22;12311;50.866;4.332;2023-08-21T03:06:51;19.70;99.90
24152;DHT22;12311;50.866;4.332;2023-08-21T03:09:17;19.80;99.90
24152;DHT22;12311;50.866;4.332;2023-08-21T03:11:43;19.80;99.90
24152;DHT22;12311;50.866;4.332;2023-08-21T03:14:08;19.70;99.90
24152;DHT22;12311;50.866;4.332;2023-08-21T03:16:34;19.70;99.90
24152;DHT22;12311;50.866;4.332;2023-08-21T03:19:00;19.70;99.90
24152;DHT22;12311;50.866;4.332;2023-08-21T03:21:27;19.60;99.90
24152;DHT22;12311;50.866;4.332;2023-08-21T03:23:56;19.60;99.90
24152;DHT22;12311;50.866;4.332;2023-08-21T03:26:23;19.60;99.90
24152;DHT22;12311;50.866;4.332;2023-08-21T03:28:49;19.70;99.90
24152;DHT22;12311;50.866;4.332;2023-08-21T03:31:14;19.70;99.90
24152;DHT22;12311;50.866;4.332;2023-08-21T03:33:40;19.70;99.90
24152;DHT22;12311;50.866;4.332;2023-08-21T03:36:06;19.70;99.90
24152;DHT22;12311;50.866;4.332;2023-08-21T03:38:32;19.70;99.90
24152;DHT22;12311;50.866;4.332;2023-08-21T03:40:58;19.70;99.90
24152;DHT22;12311;50.866;4.332;2023-08-21T03:43:24;19.60;99.90
24152;DHT22;12311;50.866;4.332;2023-08-21T03:45:49;19.50;99.90
24152;DHT22;12311;50.866;4.332;2023-08-21T03:48:15;19.40;99.90
24152;DHT22;12311;50.866;4.332;2023-08-21T03:50:41;19.40;99.90
24152;DHT22;12311;50.866;4.332;2023-08-21T03:53:06;19.50;99.90
24152;DHT22;12311;50.866;4.332;2023-08-21T03:55:33;19.50;99.90
24152;DHT22;12311;50.866;4.332;2023-08-21T03:57:59;19.50;99.90
24152;DHT22;12311;50.866;4.332;2023-08-21T04:00:24;19.50;99.90
24152;DHT22;12311;50.866;4.332;2023-08-21T04:02:50;19.60;99.90
24152;DHT22;12311;50.866;4.332;2023-08-21T04:05:16;19.50;99.90
24152;DHT22;12311;50.866;4.332;2023-08-21T04:07:41;19.40;99.90
24152;DHT22;12311;50.866;4.332;2023-08-21T04:10:07;19.30;99.90
24152;DHT22;12311;50.866;4.332;2023-08-21T04:12:33;19.30;99.90
24152;DHT22;12311;50.866;4.332;2023-08-21T04:14:58;19.30;99.90
24152;DHT22;12311;50.866;4.332;2023-08-21T04:17:24;19.40;99.90
24152;DHT22;12311;50.866;4.332;2023-08-21T04:19:51;19.40;99.90
24152;DHT22;12311;50.866;4.332;2023-08-21T04:22:17;19.30;99.90
24152;DHT22;12311;50.866;4.332;2023-08-21T04:24:43;19.30;99.90
24152;DHT22;12311;50.866;4.332;2023-08-21T04:27:08;19.20;99.90
24152;DHT22;12311;50.866;4.332;2023-08-21T04:29:38;19.20;99.90
24152;DHT22;12311;50.866;4.332;2023-08-21T04:32:05;19.20;99.90
24152;DHT22;12311;50.866;4.332;2023-08-21T04:34:32;19.30;99.90
24152;DHT22;12311;50.866;4.332;2023-08-21T04:36:58;19.30;99.90
24152;DHT22;12311;50.866;4.332;2023-08-21T04:39:23;19.20;99.90
24152;DHT22;12311;50.866;4.332;2023-08-21T04:41:49;19.20;99.90
24152;DHT22;12311;50.866;4.332;2023-08-21T04:44:15;19.20;99.90
24152;DHT22;12311;50.866;4.332;2023-08-21T04:46:40;19.30;99.90
24152;DHT22;12311;50.866;4.332;2023-08-21T04:49:06;19.30;99.90
24152;DHT22;12311;50.866;4.332;2023-08-21T04:51:32;19.30;99.90
24152;DHT22;12311;50.866;4.332;2023-08-21T04:53:57;19.30;99.90
24152;DHT22;12311;50.866;4.332;2023-08-21T04:56:25;19.20;99.90
24152;DHT22;12311;50.866;4.332;2023-08-21T04:58:51;19.20;99.90
24152;DHT22;12311;50.866;4.332;2023-08-21T05:01:17;19.30;99.90
24152;DHT22;12311;50.866;4.332;2023-08-21T05:03:42;19.10;99.90
24152;DHT22;12311;50.866;4.332;2023-08-21T05:06:08;19.00;99.90
24152;DHT22;12311;50.866;4.332;2023-08-21T05:08:34;18.90;99.90
24152;DHT22;12311;50.866;4.332;2023-08-21T05:11:00;18.90;99.90
24152;DHT22;12311;50.866;4.332;2023-08-21T05:13:26;18.90;99.90
24152;DHT22;12311;50.866;4.332;2023-08-21T05:15:53;18.90;99.90
24152;DHT22;12311;50.866;4.332;2023-08-21T05:18:20;19.00;99.90
24152;DHT22;12311;50.866;4.332;2023-08-21T05:20:46;19.00;99.90
24152;DHT22;12311;50.866;4.332;2023-08-21T05:23:12;19.10;99.90
24152;DHT22;12311;50.866;4.332;2023-08-21T05:25:37;19.10;99.90
24152;DHT22;12311;50.866;4.332;2023-08-21T05:28:04;19.30;99.90
24152;DHT22;12311;50.866;4.332;2023-08-21T05:30:30;19.30;99.90
24152;DHT22;12311;50.866;4.332;2023-08-21T05:32:56;19.30;99.90
24152;DHT22;12311;50.866;4.332;2023-08-21T05:35:21;19.30;99.90
24152;DHT22;12311;50.866;4.332;2023-08-21T05:37:47;19.30;99.90
24152;DHT22;12311;50.866;4.332;2023-08-21T05:40:13;19.30;99.90
24152;DHT22;12311;50.866;4.332;2023-08-21T05:42:38;19.30;99.90
24152;DHT22;12311;50.866;4.332;2023-08-21T05:45:05;19.30;99.90
24152;DHT22;12311;50.866;4.332;2023-08-21T05:47:31;19.40;99.90
24152;DHT22;12311;50.866;4.332;2023-08-21T05:49:57;19.40;99.90
24152;DHT22;12311;50.866;4.332;2023-08-21T05:52:22;19.40;99.90
24152;DHT22;12311;50.866;4.332;2023-08-21T05:54:48;19.40;99.90
24152;DHT22;12311;50.866;4.332;2023-08-21T05:57:15;19.40;99.90
24152;DHT22;12311;50.866;4.332;2023-08-21T05:59:47;19.40;99.90
24152;DHT22;12311;50.866;4.332;2023-08-21T06:02:13;19.60;99.90
24152;DHT22;12311;50.866;4.332;2023-08-21T06:04:42;19.60;99.90
24152;DHT22;12311;50.866;4.332;2023-08-21T06:07:09;19.60;99.90
24152;DHT22;12311;50.866;4.332;2023-08-21T06:09:35;19.60;99.90
24152;DHT22;12311;50.866;4.332;2023-08-21T06:12:05;19.70;99.90
24152;DHT22;12311;50.866;4.332;2023-08-21T06:14:31;19.70;99.90
24152;DHT22;12311;50.866;4.332;2023-08-21T06:17:01;19.70;99.90
24152;DHT22;12311;50.866;4.332;2023-08-21T06:19:27;19.80;99.90
24152;DHT22;12311;50.866;4.332;2023-08-21T06:21:55;19.90;99.90
24152;DHT22;12311;50.866;4.332;2023-08-21T06:24:21;20.00;99.90
24152;DHT22;12311;50.866;4.332;2023-08-21T06:26:46;20.10;99.90
24152;DHT22;12311;50.866;4.332;2023-08-21T06:29:12;20.10;99.90
24152;DHT22;12311;50.866;4.332;2023-08-21T06:31:38;20.20;99.90
24152;DHT22;12311;50.866;4.332;2023-08-21T06:34:04;20.30;99.90
24152;DHT22;12311;50.866;4.332;2023-08-21T06:36:29;20.40;99.90
24152;DHT22;12311;50.866;4.332;2023-08-21T06:38:55;20.50;99.90
24152;DHT22;12311;50.866;4.332;2023-08-21T06:41:21;20.60;99.90
24152;DHT22;12311;50.866;4.332;2023-08-21T06:43:47;20.50;99.90
24152;DHT22;12311;50.866;4.332;2023-08-21T06:46:13;20.70;99.90
24152;DHT22;12311;50.866;4.332;2023-08-21T06:48:40;20.70;99.90
24152;DHT22;12311;50.866;4.332;2023-08-21T06:51:09;20.70;99.90
24152;DHT22;12311;50.866;4.332;2023-08-21T06:53:35;20.70;99.90
24152;DHT22;12311;50.866;4.332;2023-08-21T06:56:01;20.70;99.90
24152;DHT22;12311;50.866;4.332;2023-08-21T06:58:27;20.80;99.90
24152;DHT22;12311;50.866;4.332;2023-08-21T07:00:56;21.00;99.90
24152;DHT22;12311;50.866;4.332;2023-08-21T07:03:22;20.90;99.90
24152;DHT22;12311;50.866;4.332;2023-08-21T07:05:58;21.00;99.90
24152;DHT22;12311;50.866;4.332;2023-08-21T07:08:24;20.90;99.90
24152;DHT22;12311;50.866;4.332;2023-08-21T07:10:50;20.90;99.90
24152;DHT22;12311;50.866;4.332;2023-08-21T07:13:16;21.00;99.90
24152;DHT22;12311;50.866;4.332;2023-08-21T07:15:42;21.10;99.90
24152;DHT22;12311;50.866;4.332;2023-08-21T07:18:07;21.10;99.90
24152;DHT22;12311;50.866;4.332;2023-08-21T07:20:33;21.10;99.90
24152;DHT22;12311;50.866;4.332;2023-08-21T07:23:00;21.10;99.90
24152;DHT22;12311;50.866;4.332;2023-08-21T07:25:26;21.20;99.90
24152;DHT22;12311;50.866;4.332;2023-08-21T07:27:52;21.30;99.90
24152;DHT22;12311;50.866;4.332;2023-08-21T07:30:21;21.30;99.90
24152;DHT22;12311;50.866;4.332;2023-08-21T07:32:48;21.30;99.90
24152;DHT22;12311;50.866;4.332;2023-08-21T07:35:14;21.50;99.90
24152;DHT22;12311;50.866;4.332;2023-08-21T07:37:39;21.70;99.90
24152;DHT22;12311;50.866;4.332;2023-08-21T07:40:08;21.70;99.90
24152;DHT22;12311;50.866;4.332;2023-08-21T07:42:34;21.80;99.90
24152;DHT22;12311;50.866;4.332;2023-08-21T07:44:59;21.80;99.90
24152;DHT22;12311;50.866;4.332;2023-08-21T07:47:27;22.00;99.90
24152;DHT22;12311;50.866;4.332;2023-08-21T07:49:53;22.10;99.90
24152;DHT22;12311;50.866;4.332;2023-08-21T07:52:19;22.10;99.90
24152;DHT22;12311;50.866;4.332;2023-08-21T07:54:45;22.10;99.90
24152;DHT22;12311;50.866;4.332;2023-08-21T07:57:11;22.10;99.90
24152;DHT22;12311;50.866;4.332;2023-08-21T07:59:37;22.20;99.90
24152;DHT22;12311;50.866;4.332;2023-08-21T08:02:03;22.30;99.90
24152;DHT22;12311;50.866;4.332;2023-08-21T08:04:30;22.40;99.90
24152;DHT22;12311;50.866;4.332;2023-08-21T08:06:55;22.50;99.90
24152;DHT22;12311;50.866;4.332;2023-08-21T08:09:21;22.50;99.90
24152;DHT22;12311;50.866;4.332;2023-08-21T08:11:47;22.50;99.90
24152;DHT22;12311;50.866;4.332;2023-08-21T08:14:12;22.60;99.90
24152;DHT22;12311;50.866;4.332;2023-08-21T08:16:38;22.60;99.90
24152;DHT22;12311;50.866;4.332;2023-08-21T08:19:04;22.70;99.90
24152;DHT22;12311;50.866;4.332;2023-08-21T08:21:29;22.70;99.90
24152;DHT22;12311;50.866;4.332;2023-08-21T08:23:56;22.90;99.90
24152;DHT22;12311;50.866;4.332;2023-08-21T08:26:22;22.90;99.90
24152;DHT22;12311;50.866;4.332;2023-08-21T08:28:48;23.00;99.90
24152;DHT22;12311;50.866;4.332;2023-08-21T08:31:15;23.10;99.90
24152;DHT22;12311;50.866;4.332;2023-08-21T08:33:41;23.20;99.90
24152;DHT22;12311;50.866;4.332;2023-08-21T08:36:07;23.20;99.90
24152;DHT22;12311;50.866;4.332;2023-08-21T08:38:32;23.20;99.90
24152;DHT22;12311;50.866;4.332;2023-08-21T08:40:58;23.40;99.90
24152;DHT22;12311;50.866;4.332;2023-08-21T08:43:27;23.50;99.90
24152;DHT22;12311;50.866;4.332;2023-08-21T08:45:56;23.60;99.90
24152;DHT22;12311;50.866;4.332;2023-08-21T08:48:23;23.70;99.90
24152;DHT22;12311;50.866;4.332;2023-08-21T08:50:50;23.50;99.90
24152;DHT22;12311;50.866;4.332;2023-08-21T08:53:18;23.60;99.90
24152;DHT22;12311;50.866;4.332;2023-08-21T08:55:46;23.70;99.90
24152;DHT22;12311;50.866;4.332;2023-08-21T08:58:13;23.80;99.90
24152;DHT22;12311;50.866;4.332;2023-08-21T09:00:39;23.90;99.90
24152;DHT22;12311;50.866;4.332;2023-08-21T09:03:05;23.70;99.90
24152;DHT22;12311;50.866;4.332;2023-08-21T09:05:32;23.90;99.90
24152;DHT22;12311;50.866;4.332;2023-08-21T09:08:14;24.00;99.90
24152;DHT22;12311;50.866;4.332;2023-08-21T09:10:41;23.80;99.90
24152;DHT22;12311;50.866;4.332;2023-08-21T09:13:15;23.70;99.90
24152;DHT22;12311;50.866;4.332;2023-08-21T09:15:43;23.70;99.90
24152;DHT22;12311;50.866;4.332;2023-08-21T09:18:12;23.80;99.90
24152;DHT22;12311;50.866;4.332;2023-08-21T09:20:38;23.80;99.90
24152;DHT22;12311;50.866;4.332;2023-08-21T09:23:04;24.00;99.90
24152;DHT22;12311;50.866;4.332;2023-08-21T09:25:34;24.10;99.90
24152;DHT22;12311;50.866;4.332;2023-08-21T09:28:03;24.10;99.90
24152;DHT22;12311;50.866;4.332;2023-08-21T09:30:29;24.30;99.90
24152;DHT22;12311;50.866;4.332;2023-08-21T09:32:59;24.50;99.90
24152;DHT22;12311;50.866;4.332;2023-08-21T09:35:26;24.60;99.90
24152;DHT22;12311;50.866;4.332;2023-08-21T09:37:52;24.80;99.90
24152;DHT22;12311;50.866;4.332;2023-08-21T09:40:19;25.00;99.90
24152;DHT22;12311;50.866;4.332;2023-08-21T09:42:45;25.20;99.90
24152;DHT22;12311;50.866;4.332;2023-08-21T09:45:11;25.40;99.90
24152;DHT22;12311;50.866;4.332;2023-08-21T09:47:37;25.60;99.90
24152;DHT22;12311;50.866;4.332;2023-08-21T09:50:05;25.80;99.90
24152;DHT22;12311;50.866;4.332;2023-08-21T09:52:31;26.20;99.90
24152;DHT22;12311;50.866;4.332;2023-08-21T09:54:57;26.30;99.90
24152;DHT22;12311;50.866;4.332;2023-08-21T09:57:23;26.40;99.90
24152;DHT22;12311;50.866;4.332;2023-08-21T09:59:53;26.40;99.90
24152;DHT22;12311;50.866;4.332;2023-08-21T10:02:20;27.10;99.90
24152;DHT22;12311;50.866;4.332;2023-08-21T10:04:48;27.80;99.90
24152;DHT22;12311;50.866;4.332;2023-08-21T10:07:16;28.50;99.90
24152;DHT22;12311;50.866;4.332;2023-08-21T10:09:43;29.10;99.90
24152;DHT22;12311;50.866;4.332;2023-08-21T10:12:12;29.40;99.90
24152;DHT22;12311;50.866;4.332;2023-08-21T10:14:38;29.00;99.90
24152;DHT22;12311;50.866;4.332;2023-08-21T10:17:05;29.50;99.90
24152;DHT22;12311;50.866;4.332;2023-08-21T10:19:34;30.00;99.90
24152;DHT22;12311;50.866;4.332;2023-08-21T10:22:00;30.70;99.90
24152;DHT22;12311;50.866;4.332;2023-08-21T10:24:35;30.90;99.90
24152;DHT22;12311;50.866;4.332;2023-08-21T10:27:06;31.30;98.20
24152;DHT22;12311;50.866;4.332;2023-08-21T10:29:32;31.70;96.80
24152;DHT22;12311;50.866;4.332;2023-08-21T10:31:59;31.80;97.30
24152;DHT22;12311;50.866;4.332;2023-08-21T10:34:32;32.30;95.30
24152;DHT22;12311;50.866;4.332;2023-08-21T10:37:09;32.60;94.20
24152;DHT22;12311;50.866;4.332;2023-08-21T10:39:38;32.50;93.50
24152;DHT22;12311;50.866;4.332;2023-08-21T10:42:12;32.90;92.70
24152;DHT22;12311;50.866;4.332;2023-08-21T10:47:31;33.60;89.50
24152;DHT22;12311;50.866;4.332;2023-08-21T10:50:05;33.70;89.80
24152;DHT22;12311;50.866;4.332;2023-08-21T10:52:35;33.80;85.30
24152;DHT22;12311;50.866;4.332;2023-08-21T10:55:02;34.10;84.50
24152;DHT22;12311;50.866;4.332;2023-08-21T10:57:32;34.00;83.90
24152;DHT22;12311;50.866;4.332;2023-08-21T11:00:04;33.50;82.20
24152;DHT22;12311;50.866;4.332;2023-08-21T11:02:31;33.20;83.20
24152;DHT22;12311;50.866;4.332;2023-08-21T11:04:59;33.20;82.50
24152;DHT22;12311;50.866;4.332;2023-08-21T11:07:26;32.70;83.70
24152;DHT22;12311;50.866;4.332;2023-08-21T11:09:51;32.90;84.70
24152;DHT22;12311;50.866;4.332;2023-08-21T11:12:20;32.90;83.40
24152;DHT22;12311;50.866;4.332;2023-08-21T11:14:47;33.00;83.40
24152;DHT22;12311;50.866;4.332;2023-08-21T11:17:13;32.70;81.80
24152;DHT22;12311;50.866;4.332;2023-08-21T11:19:40;32.40;83.90
24152;DHT22;12311;50.866;4.332;2023-08-21T11:22:06;32.10;83.70
24152;DHT22;12311;50.866;4.332;2023-08-21T11:24:39;32.40;84.90
24152;DHT22;12311;50.866;4.332;2023-08-21T11:27:05;32.20;84.80
24152;DHT22;12311;50.866;4.332;2023-08-21T11:29:45;31.90;84.60
24152;DHT22;12311;50.866;4.332;2023-08-21T11:32:15;31.40;85.30
24152;DHT22;12311;50.866;4.332;2023-08-21T11:34:42;30.90;88.20
24152;DHT22;12311;50.866;4.332;2023-08-21T11:37:08;30.50;90.00
24152;DHT22;12311;50.866;4.332;2023-08-21T11:39:46;30.30;90.50
24152;DHT22;12311;50.866;4.332;2023-08-21T11:42:13;30.70;91.30
24152;DHT22;12311;50.866;4.332;2023-08-21T11:44:44;31.30;90.80
24152;DHT22;12311;50.866;4.332;2023-08-21T11:47:10;32.30;88.10
24152;DHT22;12311;50.866;4.332;2023-08-21T11:49:38;32.60;85.10
24152;DHT22;12311;50.866;4.332;2023-08-21T11:52:04;32.40;86.00
24152;DHT22;12311;50.866;4.332;2023-08-21T11:54:34;32.60;89.40
24152;DHT22;12311;50.866;4.332;2023-08-21T11:57:04;33.00;87.00
24152;DHT22;12311;50.866;4.332;2023-08-21T11:59:30;33.50;86.90
24152;DHT22;12311;50.866;4.332;2023-08-21T12:01:56;33.80;83.20
24152;DHT22;12311;50.866;4.332;2023-08-21T12:04:21;34.00;82.30
24152;DHT22;12311;50.866;4.332;2023-08-21T12:06:47;33.90;81.10
24152;DHT22;12311;50.866;4.332;2023-08-21T12:09:13;33.90;79.80
24152;DHT22;12311;50.866;4.332;2023-08-21T12:11:38;32.30;83.10
24152;DHT22;12311;50.866;4.332;2023-08-21T12:14:05;32.40;84.20
24152;DHT22;12311;50.866;4.332;2023-08-21T12:16:31;33.10;83.10
24152;DHT22;12311;50.866;4.332;2023-08-21T12:18:56;34.10;81.20
24152;DHT22;12311;50.866;4.332;2023-08-21T12:21:23;33.50;79.10
24152;DHT22;12311;50.866;4.332;2023-08-21T12:23:50;33.10;79.90
24152;DHT22;12311;50.866;4.332;2023-08-21T12:26:16;33.60;80.10
24152;DHT22;12311;50.866;4.332;2023-08-21T12:28:48;33.70;80.10
24152;DHT22;12311;50.866;4.332;2023-08-21T12:31:14;33.60;80.30
24152;DHT22;12311;50.866;4.332;2023-08-21T12:33:40;32.80;81.30
24152;DHT22;12311;50.866;4.332;2023-08-21T12:36:06;32.40;83.30
24152;DHT22;12311;50.866;4.332;2023-08-21T12:38:35;33.00;82.80
24152;DHT22;12311;50.866;4.332;2023-08-21T12:41:04;34.30;80.70
24152;DHT22;12311;50.866;4.332;2023-08-21T12:43:30;34.90;76.00
24152;DHT22;12311;50.866;4.332;2023-08-21T12:45:56;34.90;76.20
24152;DHT22;12311;50.866;4.332;2023-08-21T12:48:22;35.50;73.00
24152;DHT22;12311;50.866;4.332;2023-08-21T12:50:48;35.80;73.10
24152;DHT22;12311;50.866;4.332;2023-08-21T12:53:13;36.20;70.40
24152;DHT22;12311;50.866;4.332;2023-08-21T12:55:39;36.80;69.30
24152;DHT22;12311;50.866;4.332;2023-08-21T12:58:05;37.10;67.00
24152;DHT22;12311;50.866;4.332;2023-08-21T13:00:31;37.10;66.30
24152;DHT22;12311;50.866;4.332;2023-08-21T13:02:57;36.90;65.80
24152;DHT22;12311;50.866;4.332;2023-08-21T13:05:23;35.10;66.30
24152;DHT22;12311;50.866;4.332;2023-08-21T13:07:49;34.40;68.80
24152;DHT22;12311;50.866;4.332;2023-08-21T13:10:14;33.80;69.40
24152;DHT22;12311;50.866;4.332;2023-08-21T13:12:40;33.40;69.20
24152;DHT22;12311;50.866;4.332;2023-08-21T13:15:06;33.40;69.80
24152;DHT22;12311;50.866;4.332;2023-08-21T13:17:35;34.40;68.50
24152;DHT22;12311;50.866;4.332;2023-08-21T13:20:01;35.40;67.10
24152;DHT22;12311;50.866;4.332;2023-08-21T13:22:26;36.60;64.40
24152;DHT22;12311;50.866;4.332;2023-08-21T13:24:52;37.80;62.10
24152;DHT22;12311;50.866;4.332;2023-08-21T13:27:18;38.40;59.40
24152;DHT22;12311;50.866;4.332;2023-08-21T13:29:46;37.40;57.40
24152;DHT22;12311;50.866;4.332;2023-08-21T13:32:11;35.40;60.40
24152;DHT22;12311;50.866;4.332;2023-08-21T13:34:37;34.10;63.90
24152;DHT22;12311;50.866;4.332;2023-08-21T13:37:03;34.10;63.10
24152;DHT22;12311;50.866;4.332;2023-08-21T13:39:29;34.00;62.90
24152;DHT22;12311;50.866;4.332;2023-08-21T13:41:56;34.20;61.70
24152;DHT22;12311;50.866;4.332;2023-08-21T13:44:21;33.70;63.10
24152;DHT22;12311;50.866;4.332;2023-08-21T13:46:47;34.80;61.60
24152;DHT22;12311;50.866;4.332;2023-08-21T13:49:13;36.40;58.70
24152;DHT22;12311;50.866;4.332;2023-08-21T13:51:38;37.30;57.20
24152;DHT22;12311;50.866;4.332;2023-08-21T13:54:04;36.10;56.30
24152;DHT22;12311;50.866;4.332;2023-08-21T13:56:30;37.00;56.10
24152;DHT22;12311;50.866;4.332;2023-08-21T13:58:55;37.80;54.50
24152;DHT22;12311;50.866;4.332;2023-08-21T14:01:21;37.60;53.20
24152;DHT22;12311;50.866;4.332;2023-08-21T14:03:47;37.90;52.10
24152;DHT22;12311;50.866;4.332;2023-08-21T14:06:12;38.20;51.20
24152;DHT22;12311;50.866;4.332;2023-08-21T14:08:38;38.10;50.20
24152;DHT22;12311;50.866;4.332;2023-08-21T14:11:04;38.50;49.80
24152;DHT22;12311;50.866;4.332;2023-08-21T14:13:30;39.10;48.80
24152;DHT22;12311;50.866;4.332;2023-08-21T14:15:55;39.50;47.90
24152;DHT22;12311;50.866;4.332;2023-08-21T14:18:21;39.80;48.30
24152;DHT22;12311;50.866;4.332;2023-08-21T14:20:47;41.20;46.40
24152;DHT22;12311;50.866;4.332;2023-08-21T14:23:13;40.10;44.90
24152;DHT22;12311;50.866;4.332;2023-08-21T14:25:38;38.30;45.20
24152;DHT22;12311;50.866;4.332;2023-08-21T14:28:04;37.60;46.90
24152;DHT22;12311;50.866;4.332;2023-08-21T14:30:30;38.70;46.40
24152;DHT22;12311;50.866;4.332;2023-08-21T14:32:56;39.70;44.40
24152;DHT22;12311;50.866;4.332;2023-08-21T14:35:21;40.70;44.60
24152;DHT22;12311;50.866;4.332;2023-08-21T14:37:47;40.80;43.10
24152;DHT22;12311;50.866;4.332;2023-08-21T14:40:13;41.40;43.10
24152;DHT22;12311;50.866;4.332;2023-08-21T14:42:39;41.80;41.50
24152;DHT22;12311;50.866;4.332;2023-08-21T14:45:05;41.90;41.00
24152;DHT22;12311;50.866;4.332;2023-08-21T14:47:31;40.90;41.50
24152;DHT22;12311;50.866;4.332;2023-08-21T14:49:57;40.70;42.30
24152;DHT22;12311;50.866;4.332;2023-08-21T14:52:23;40.80;42.80
24152;DHT22;12311;50.866;4.332;2023-08-21T14:54:50;40.10;43.30
24152;DHT22;12311;50.866;4.332;2023-08-21T14:57:16;40.50;43.30
24152;DHT22;12311;50.866;4.332;2023-08-21T14:59:42;41.70;41.70
24152;DHT22;12311;50.866;4.332;2023-08-21T15:02:07;42.00;41.20
24152;DHT22;12311;50.866;4.332;2023-08-21T15:04:33;42.90;40.40
24152;DHT22;12311;50.866;4.332;2023-08-21T15:06:59;43.00;38.60
24152;DHT22;12311;50.866;4.332;2023-08-21T15:09:24;42.70;38.60
24152;DHT22;12311;50.866;4.332;2023-08-21T15:11:50;42.70;38.90
24152;DHT22;12311;50.866;4.332;2023-08-21T15:14:16;43.00;39.60
24152;DHT22;12311;50.866;4.332;2023-08-21T15:16:41;43.60;39.20
24152;DHT22;12311;50.866;4.332;2023-08-21T15:19:07;44.10;37.80
24152;DHT22;12311;50.866;4.332;2023-08-21T15:21:33;44.20;37.60
24152;DHT22;12311;50.866;4.332;2023-08-21T15:23:59;43.70;37.20
24152;DHT22;12311;50.866;4.332;2023-08-21T15:26:25;43.70;37.30
24152;DHT22;12311;50.866;4.332;2023-08-21T15:28:51;42.50;37.70
24152;DHT22;12311;50.866;4.332;2023-08-21T15:31:16;42.50;37.60